Time;durP1;ratioP1;P1;durP2;ratioP2;P2;SDS_P1;SDS_P2;PMS_P1;PMS_P2;Temp;Humidity;BMP_temperature;BMP_pressure;BME280_temperature;BME280_humidity;BME280_pressure;Samples;Min_cycle;Max_cycle;Signal;HPM_P1;HPM_P2
2022/11/09 00:01:01;;;;;;;5.47;4.43;;;;;;;13.70;76.83;99607.13;10522090;28;20048;-72
2022/11/09 00:06:03;;;;;;;7.10;4.85;;;;;;;13.68;76.63;99626.00;10530534;28;20052;-71
2022/11/09 00:11:06;;;;;;;6.43;4.38;;;;;;;13.74;76.13;99628.03;10525225;28;20938;-74
2022/11/09 00:16:10;;;;;;;4.27;3.00;;;;;;;13.76;75.95;99634.03;10526472;28;20146;-74
2022/11/09 00:21:20;;;;;;;5.63;3.93;;;;;;;13.81;75.97;99622.03;10519257;28;20697;-76
2022/11/09 00:26:22;;;;;;;4.03;3.42;;;;;;;13.83;77.91;99652.16;10525420;28;20046;-73
2022/11/09 00:31:23;;;;;;;3.80;3.40;;;;;;;13.71;80.63;99663.13;10529657;28;20040;-73
2022/11/09 00:36:27;;;;;;;4.03;3.25;;;;;;;13.52;84.24;99658.81;10558939;28;20521;-77
2022/11/09 00:41:28;;;;;;;3.67;3.25;;;;;;;13.34;87.58;99634.81;10566006;28;20058;-74
2022/11/09 00:46:29;;;;;;;4.13;3.40;;;;;;;13.25;88.21;99620.50;10514194;28;20044;-73
2022/11/09 00:51:31;;;;;;;4.40;3.22;;;;;;;13.26;90.02;99637.41;10563417;28;20051;-73
2022/11/09 00:56:32;;;;;;;4.78;3.72;;;;;;;13.26;91.67;99642.75;10569886;28;20043;-73
2022/11/09 01:01:34;;;;;;;7.22;4.22;;;;;;;13.16;93.39;99668.72;10572952;28;20059;-76
2022/11/09 01:06:35;;;;;;;6.45;4.10;;;;;;;13.12;94.54;99667.34;10540228;28;20055;-74
2022/11/09 01:11:37;;;;;;;4.30;3.60;;;;;;;13.19;94.85;99666.56;10534648;28;20055;-75
2022/11/09 01:16:38;;;;;;;4.25;3.05;;;;;;;13.21;96.14;99639.69;10521406;28;20046;-72
2022/11/09 01:21:40;;;;;;;3.42;2.80;;;;;;;13.28;96.49;99624.72;10513193;28;20055;-72
2022/11/09 01:26:41;;;;;;;9.10;3.78;;;;;;;13.32;98.10;99635.94;10518726;28;20425;-74
2022/11/09 01:31:42;;;;;;;4.97;3.88;;;;;;;13.35;97.99;99641.84;10520885;28;20043;-72
2022/11/09 01:36:43;;;;;;;4.00;3.03;;;;;;;13.40;97.63;99666.25;10519617;28;20740;-74
2022/11/09 01:41:45;;;;;;;4.50;3.55;;;;;;;13.46;97.94;99671.97;10534638;28;20151;-73
2022/11/09 01:46:49;;;;;;;5.03;3.92;;;;;;;13.38;99.15;99680.78;10538161;28;20048;-72
2022/11/09 01:52:03;;;;;;;6.93;3.78;;;;;;;13.36;99.89;99696.97;10527081;28;20792;-73
2022/11/09 01:57:09;;;;;;;5.95;3.47;;;;;;;13.30;100.00;99691.38;10511274;28;20473;-72
2022/11/09 02:02:11;;;;;;;9.60;4.70;;;;;;;13.18;100.00;99678.28;10532039;27;20055;-74
2022/11/09 02:07:13;;;;;;;5.70;4.47;;;;;;;13.11;100.00;99681.72;10516728;28;20058;-74
2022/11/09 02:12:17;;;;;;;5.80;4.32;;;;;;;13.21;100.00;99669.06;10530114;28;20116;-72
2022/11/09 02:17:18;;;;;;;7.40;3.97;;;;;;;13.19;100.00;99663.06;10532070;27;20052;-74
2022/11/09 02:22:20;;;;;;;5.20;3.17;;;;;;;13.06;100.00;99660.78;10521565;28;20052;-74
2022/11/09 02:27:22;;;;;;;3.75;3.35;;;;;;;13.19;100.00;99658.53;10527526;27;20459;-74
2022/11/09 02:32:27;;;;;;;3.33;2.83;;;;;;;13.21;100.00;99650.38;10534472;28;20102;-72
2022/11/09 02:37:36;;;;;;;3.92;2.47;;;;;;;13.21;100.00;99642.34;10490850;28;20070;-74
2022/11/09 02:42:38;;;;;;;4.40;2.58;;;;;;;13.28;100.00;99624.72;10529889;28;20048;-71
2022/11/09 02:47:39;;;;;;;4.63;2.40;;;;;;;13.25;100.00;99617.00;10500241;28;20048;-73
2022/11/09 02:52:40;;;;;;;3.50;2.20;;;;;;;13.25;100.00;99587.59;10518700;28;20051;-72
2022/11/09 02:57:42;;;;;;;4.68;2.10;;;;;;;13.31;100.00;99576.28;10518755;28;20048;-74
2022/11/09 03:02:43;;;;;;;2.45;2.03;;;;;;;13.36;100.00;99583.84;10569421;28;20745;-73
2022/11/09 03:07:44;;;;;;;1.95;1.67;;;;;;;13.31;100.00;99600.34;10538292;28;20367;-73
2022/11/09 03:12:46;;;;;;;1.73;1.50;;;;;;;13.37;100.00;99599.72;10520108;28;20051;-72
2022/11/09 03:17:47;;;;;;;2.40;1.70;;;;;;;13.32;100.00;99574.47;10518231;28;20052;-72
2022/11/09 03:22:48;;;;;;;2.45;1.48;;;;;;;13.27;100.00;99549.03;10562795;28;20054;-74
2022/11/09 03:27:56;;;;;;;3.28;1.35;;;;;;;13.44;100.00;99581.25;10551848;28;20199;-74
2022/11/09 03:33:08;;;;;;;1.58;1.25;;;;;;;13.50;100.00;99579.78;10532813;28;20040;-74
2022/11/09 03:38:10;;;;;;;3.58;1.25;;;;;;;13.49;100.00;99596.81;10530571;28;20079;-73
2022/11/09 03:43:11;;;;;;;1.58;1.08;;;;;;;13.56;100.00;99612.06;10533885;28;20241;-76
2022/11/09 03:48:12;;;;;;;1.77;1.30;;;;;;;13.64;100.00;99635.31;10569856;28;20051;-76
2022/11/09 03:53:14;;;;;;;1.35;0.82;;;;;;;13.65;100.00;99653.06;10545363;28;20751;-74
2022/11/09 03:58:15;;;;;;;1.50;1.40;;;;;;;13.66;100.00;99675.28;10528911;28;20048;-72
2022/11/09 04:03:17;;;;;;;2.72;0.93;;;;;;;13.60;100.00;99671.41;10535302;28;20067;-71
2022/11/09 04:08:18;;;;;;;1.98;1.50;;;;;;;13.52;100.00;99664.16;10545618;28;20111;-72
2022/11/09 04:13:19;;;;;;;2.78;1.70;;;;;;;13.56;100.00;99660.19;10557107;28;20065;-72
2022/11/09 04:18:21;;;;;;;1.70;1.60;;;;;;;13.57;100.00;99666.38;10538978;28;20059;-71
2022/11/09 04:23:22;;;;;;;2.38;1.60;;;;;;;13.54;100.00;99677.38;10526488;28;20044;-72
2022/11/09 04:28:24;;;;;;;4.18;1.80;;;;;;;13.50;100.00;99666.16;10560277;27;20107;-73
2022/11/09 04:33:25;;;;;;;2.90;1.50;;;;;;;13.47;100.00;99676.34;10541508;28;20063;-72
2022/11/09 04:38:27;;;;;;;5.53;1.67;;;;;;;13.47;100.00;99676.34;10544756;28;20048;-72
2022/11/09 04:43:28;;;;;;;2.90;1.80;;;;;;;13.54;100.00;99685.41;10558782;27;20043;-72
2022/11/09 04:48:31;;;;;;;2.95;1.38;;;;;;;13.54;100.00;99680.03;10526481;28;20054;-74
2022/11/09 04:53:33;;;;;;;2.03;1.35;;;;;;;13.53;100.00;99683.75;10542423;27;20092;-72
2022/11/09 04:58:35;;;;;;;2.45;1.67;;;;;;;13.57;100.00;99682.41;10541514;28;20469;-71
2022/11/09 05:03:36;;;;;;;2.40;1.50;;;;;;;13.50;100.00;99676.03;10533633;27;20060;-73
2022/11/09 05:08:38;;;;;;;2.58;1.70;;;;;;;13.49;100.00;99669.81;10538058;28;20102;-72
2022/11/09 05:13:39;;;;;;;3.63;1.50;;;;;;;13.41;100.00;99667.94;10534305;28;20043;-71
2022/11/09 05:18:40;;;;;;;1.92;1.50;;;;;;;13.43;100.00;99665.09;10498396;28;20568;-70
2022/11/09 05:23:57;;;;;;;2.13;1.80;;;;;;;13.50;100.00;99655.47;10534993;28;20064;-72
2022/11/09 05:29:01;;;;;;;3.42;2.40;;;;;;;13.43;100.00;99639.19;10524323;28;20453;-73
2022/11/09 05:34:04;;;;;;;2.93;2.10;;;;;;;13.30;100.00;99624.53;10534055;28;20271;-73
2022/11/09 05:39:05;;;;;;;2.83;2.47;;;;;;;13.24;100.00;99620.66;10535828;27;20059;-74
2022/11/09 05:44:06;;;;;;;2.78;2.10;;;;;;;13.17;100.00;99633.00;10538460;28;20048;-72
2022/11/09 05:49:08;;;;;;;2.80;2.60;;;;;;;13.16;100.00;99628.63;10534549;28;20050;-73
2022/11/09 05:54:09;;;;;;;2.88;2.53;;;;;;;13.15;100.00;99635.81;10523745;28;20043;-75
2022/11/09 05:59:11;;;;;;;4.40;2.50;;;;;;;13.18;100.00;99635.50;10514485;28;20143;-72
2022/11/09 06:04:12;;;;;;;3.08;2.10;;;;;;;13.15;100.00;99624.28;10522045;28;20058;-73
2022/11/09 06:09:13;;;;;;;2.60;2.17;;;;;;;13.15;100.00;99624.28;10535752;28;20051;-72
2022/11/09 06:14:14;;;;;;;3.63;2.53;;;;;;;13.14;100.00;99638.66;10529319;28;20138;-75
2022/11/09 06:19:16;;;;;;;4.65;3.03;;;;;;;13.21;100.00;99631.66;10549955;28;20063;-75
2022/11/09 06:24:17;;;;;;;5.32;3.60;;;;;;;13.15;100.00;99645.66;10548237;28;20056;-73
2022/11/09 06:29:18;;;;;;;4.57;3.25;;;;;;;13.16;100.00;99652.69;10547176;28;20039;-74
2022/11/09 06:34:20;;;;;;;4.80;3.55;;;;;;;13.23;100.00;99656.41;10557164;28;20075;-73
2022/11/09 06:39:22;;;;;;;5.47;4.10;;;;;;;13.19;100.00;99666.56;10563827;28;20060;-73
2022/11/09 06:44:23;;;;;;;6.03;5.47;;;;;;;13.17;100.00;99670.41;10576278;27;20423;-76
2022/11/09 06:49:24;;;;;;;6.10;5.20;;;;;;;13.21;100.00;99682.44;10561139;28;20043;-72
2022/11/09 06:54:26;;;;;;;6.93;6.22;;;;;;;13.20;100.00;99686.13;10530241;28;20048;-71
2022/11/09 06:59:28;;;;;;;6.25;5.75;;;;;;;13.28;100.00;99688.84;10537811;28;20206;-71
2022/11/09 07:04:29;;;;;;;6.43;5.72;;;;;;;13.26;100.00;99685.50;10520021;28;20051;-72
2022/11/09 07:09:32;;;;;;;6.15;5.05;;;;;;;13.32;100.00;99687.56;10528665;27;20051;-72
2022/11/09 07:14:33;;;;;;;6.07;5.50;;;;;;;13.36;100.00;99691.63;10529592;28;20068;-74
2022/11/09 07:19:34;;;;;;;4.82;4.43;;;;;;;13.28;100.00;99704.88;10555865;27;20054;-73
2022/11/09 07:24:37;;;;;;;6.07;5.47;;;;;;;13.36;100.00;99712.16;10516363;28;20055;-72
2022/11/09 07:29:38;;;;;;;4.90;4.47;;;;;;;13.51;100.00;99736.50;10533144;28;20047;-73
2022/11/09 07:34:39;;;;;;;8.57;5.30;;;;;;;13.69;100.00;99737.34;10520065;28;20062;-73
2022/11/09 07:39:41;;;;;;;4.82;4.22;;;;;;;13.86;100.00;99729.44;10528104;27;20067;-74
2022/11/09 07:44:42;;;;;;;5.93;4.47;;;;;;;13.76;100.00;99727.66;10533371;28;20047;-71
2022/11/09 07:49:43;;;;;;;7.13;4.57;;;;;;;13.77;100.00;99732.03;10535577;28;20608;-73
2022/11/09 07:54:45;;;;;;;5.25;4.55;;;;;;;13.70;100.00;99747.03;10527870;27;20055;-72
2022/11/09 07:59:52;;;;;;;5.97;5.38;;;;;;;13.65;100.00;99749.34;10519668;28;20063;-73
2022/11/09 08:04:53;;;;;;;4.90;4.50;;;;;;;13.58;100.00;99756.28;10533857;28;20399;-73
2022/11/09 08:09:55;;;;;;;5.53;4.20;;;;;;;13.52;100.00;99754.25;10559557;28;20596;-72
2022/11/09 08:14:56;;;;;;;4.25;3.88;;;;;;;13.43;100.00;99756.00;10551483;28;20046;-73
2022/11/09 08:19:57;;;;;;;5.55;4.35;;;;;;;13.36;100.00;99754.94;10539726;28;20062;-73
2022/11/09 08:24:59;;;;;;;4.90;4.32;;;;;;;13.39;100.00;99760.84;10531640;28;20044;-74
2022/11/09 08:30:00;;;;;;;5.13;4.07;;;;;;;13.37;100.00;99760.13;10528848;28;20056;-73
2022/11/09 08:35:02;;;;;;;4.45;4.05;;;;;;;13.48;100.00;99758.22;10539144;28;20112;-72
2022/11/09 08:40:05;;;;;;;5.10;3.67;;;;;;;13.54;100.00;99760.25;10574616;28;20066;-74
2022/11/09 08:45:07;;;;;;;4.70;4.22;;;;;;;13.55;100.00;99772.66;10572317;28;20125;-73
2022/11/09 08:50:10;;;;;;;4.65;3.92;;;;;;;13.56;100.00;99767.16;10560550;28;20080;-75
2022/11/09 08:55:11;;;;;;;4.20;3.80;;;;;;;13.50;100.00;99761.59;10558993;28;20035;-77
2022/11/09 09:00:13;;;;;;;5.13;4.63;;;;;;;13.61;100.00;99774.69;10556083;28;20060;-76
2022/11/09 09:05:15;;;;;;;4.38;4.07;;;;;;;13.67;100.00;99781.28;10543032;28;20054;-73
2022/11/09 09:10:17;;;;;;;4.70;4.30;;;;;;;14.03;100.00;99765.97;10526810;28;20055;-74
2022/11/09 09:15:19;;;;;;;7.03;4.00;;;;;;;14.34;100.00;99754.78;10521421;28;20054;-74
2022/11/09 09:20:21;;;;;;;4.55;3.17;;;;;;;14.74;95.49;99750.63;10522828;28;20232;-72
2022/11/09 09:25:23;;;;;;;3.53;3.22;;;;;;;14.63;95.93;99769.66;10518527;28;20051;-74
2022/11/09 09:30:24;;;;;;;2.83;2.63;;;;;;;14.47;95.85;99771.25;10510551;28;20403;-73
2022/11/09 09:35:27;;;;;;;3.42;2.42;;;;;;;14.23;97.43;99784.47;10520418;28;20062;-74
2022/11/09 09:40:47;;;;;;;3.20;2.45;;;;;;;14.23;97.74;99789.84;10531308;27;20064;-74
2022/11/09 09:45:51;;;;;;;3.38;2.33;;;;;;;14.44;97.68;99795.66;10543654;28;20055;-75
2022/11/09 09:51:00;;;;;;;2.13;2.00;;;;;;;14.38;97.15;99814.19;10535859;28;20051;-73
2022/11/09 09:56:09;;;;;;;3.42;2.30;;;;;;;14.45;96.45;99800.00;10524407;28;20047;-74
2022/11/09 10:01:19;;;;;;;1.65;1.48;;;;;;;14.94;93.41;99796.72;10531952;28;20661;-74
2022/11/09 10:06:57;;;;;;;1.83;1.23;;;;;;;15.66;87.85;99803.38;10521037;28;20118;-74
2022/11/09 10:12:14;;;;;;;1.23;0.80;;;;;;;16.36;81.27;99801.94;10496915;27;20040;-74
2022/11/09 10:17:34;;;;;;;2.53;1.02;;;;;;;17.58;74.89;99799.66;10489051;28;20797;-74
2022/11/09 10:23:02;;;;;;;2.08;0.70;;;;;;;18.83;67.89;99797.41;10509058;27;20138;-72
2022/11/09 10:28:10;;;;;;;1.63;0.60;;;;;;;21.66;56.70;99781.03;10489773;28;20039;-74
2022/11/09 10:33:20;;;;;;;3.33;0.65;;;;;;;22.29;52.60;99779.72;10511585;28;20123;-71
2022/11/09 10:38:27;;;;;;;;;;;;;;;21.11;56.53;99779.25;10493964;28;20385;-74
2022/11/09 10:43:29;;;;;;;2.25;0.60;;;;;;;20.29;59.40;99772.84;10505344;28;19927;-72
2022/11/09 10:48:39;;;;;;;2.65;0.60;;;;;;;21.19;57.30;99762.00;10508548;28;20055;-73
2022/11/09 10:53:40;;;;;;;1.13;0.38;;;;;;;23.42;50.01;99768.41;10507008;27;21569;-73
2022/11/09 10:58:59;;;;;;;2.42;0.45;;;;;;;24.87;45.87;99769.09;10512795;28;20481;-74
2022/11/09 11:04:19;;;;;;;2.25;0.63;;;;;;;21.43;53.23;99765.97;10491333;28;20090;-74
2022/11/09 11:09:22;;;;;;;3.55;0.40;;;;;;;20.15;57.15;99774.63;10482631;28;20044;-74
2022/11/09 11:14:35;;;;;;;1.87;0.53;;;;;;;19.53;60.36;99768.06;10491348;28;20044;-72
2022/11/09 11:19:43;;;;;;;1.10;0.60;;;;;;;19.68;58.92;99751.78;10484456;28;20043;-73
2022/11/09 11:24:54;;;;;;;1.70;0.60;;;;;;;19.26;60.93;99775.94;10487629;28;20067;-71
2022/11/09 11:30:04;;;;;;;3.05;0.70;;;;;;;17.83;65.29;99776.09;10499534;28;20616;-72
2022/11/09 11:35:15;;;;;;;1.67;0.47;;;;;;;16.98;69.45;99777.06;10503571;28;20679;-72
2022/11/09 11:40:49;;;;;;;2.03;0.68;;;;;;;16.58;72.78;99779.72;10488870;28;20619;-72
2022/11/09 11:46:07;;;;;;;3.17;0.90;;;;;;;16.15;74.57;99776.47;10504504;28;20757;-73
2022/11/09 11:51:18;;;;;;;2.47;0.73;;;;;;;15.90;76.81;99787.28;10510583;28;20048;-73
2022/11/09 11:56:21;;;;;;;1.35;0.93;;;;;;;16.18;76.24;99765.44;10492934;28;20534;-73
2022/11/09 12:01:49;;;;;;;2.88;0.98;;;;;;;17.39;70.69;99773.25;10509857;28;20051;-71
2022/11/09 12:07:18;;;;;;;1.90;0.90;;;;;;;17.60;70.24;99776.09;10506101;28;20594;-73
2022/11/09 12:12:33;;;;;;;1.75;0.82;;;;;;;18.81;66.37;99773.31;10505201;28;20040;-70
2022/11/09 12:17:57;;;;;;;1.23;0.65;;;;;;;18.10;67.55;99770.28;10500131;28;20061;-73
2022/11/09 12:23:24;;;;;;;1.83;0.50;;;;;;;17.43;68.37;99745.81;10488781;28;20054;-72
2022/11/09 12:28:28;;;;;;;1.38;0.70;;;;;;;17.63;69.04;99764.97;10495063;28;20092;-72
2022/11/09 12:33:57;;;;;;;3.25;1.25;;;;;;;18.18;67.01;99772.91;10479342;28;20045;-71
2022/11/09 12:39:24;;;;;;;2.20;1.10;;;;;;;19.65;60.79;99769.25;10501154;28;20048;-71
2022/11/09 12:44:36;;;;;;;1.60;0.60;;;;;;;19.08;62.07;99760.19;10492324;27;20478;-69
2022/11/09 12:49:41;;;;;;;1.40;0.70;;;;;;;18.23;63.54;99770.47;10507266;28;20051;-70
2022/11/09 12:54:48;;;;;;;3.50;0.63;;;;;;;17.49;66.55;99771.16;10508996;28;20047;-74
2022/11/09 12:59:52;;;;;;;3.42;0.98;;;;;;;16.96;69.17;99758.41;10506643;28;20047;-72
2022/11/09 13:04:55;;;;;;;2.97;0.95;;;;;;;16.69;70.17;99769.59;10507486;28;20047;-71
2022/11/09 13:10:00;;;;;;;2.92;1.02;;;;;;;16.33;72.49;99775.44;10482923;28;20178;-73
2022/11/09 13:15:23;;;;;;;4.20;0.70;;;;;;;16.06;73.76;99786.44;10506241;27;20426;-75
2022/11/09 13:20:34;;;;;;;1.55;0.80;;;;;;;15.93;73.60;99777.19;10499686;28;20589;-74
2022/11/09 13:25:56;;;;;;;2.17;1.00;;;;;;;15.84;74.70;99779.91;10492127;27;20086;-71
2022/11/09 13:31:03;;;;;;;2.85;0.95;;;;;;;15.79;75.33;99784.09;10508686;28;20055;-70
2022/11/09 13:36:07;;;;;;;2.03;1.15;;;;;;;15.89;74.96;99779.41;10505752;28;20047;-72
2022/11/09 13:41:27;;;;;;;;;;;;;;;15.79;75.56;99778.72;10509156;28;20048;-71
2022/11/09 13:46:35;;;;;;;4.00;1.15;;;;;;;15.71;76.33;99785.75;10514759;27;19927;-73
2022/11/09 13:51:46;;;;;;;3.30;1.10;;;;;;;15.65;76.75;99785.59;10510511;28;20300;-72
2022/11/09 13:56:49;;;;;;;4.75;1.08;;;;;;;15.49;76.86;99781.91;10512592;28;20052;-72
2022/11/09 14:01:53;;;;;;;2.80;1.27;;;;;;;15.49;77.57;99781.91;10508693;27;20055;-71
2022/11/09 14:07:00;;;;;;;;;;;;;;;15.50;78.07;99780.06;10506908;28;20079;-72
2022/11/09 14:12:26;;;;;;;2.55;0.90;;;;;;;15.57;77.97;99778.38;10500068;28;19934;-72
2022/11/09 14:17:44;;;;;;;2.88;1.10;;;;;;;15.55;78.49;99780.38;10507064;28;20051;-71
2022/11/09 14:22:45;;;;;;;3.55;1.58;;;;;;;15.55;79.28;99781.22;10507468;27;20043;-71
2022/11/09 14:27:56;;;;;;;3.67;1.42;;;;;;;15.49;79.59;99791.78;10509661;27;20052;-71
2022/11/09 14:32:58;;;;;;;1.85;0.75;;;;;;;15.38;80.35;99791.09;10508543;27;20133;-72
2022/11/09 14:38:13;;;;;;;5.03;1.23;;;;;;;15.30;81.43;99799.16;10511045;28;20047;-72
2022/11/09 14:43:28;;;;;;;2.92;1.05;;;;;;;15.11;81.70;99800.28;10509515;27;20043;-71
2022/11/09 14:48:31;;;;;;;3.50;0.98;;;;;;;14.97;83.89;99812.47;10506712;28;20733;-72
2022/11/09 14:53:35;;;;;;;2.60;0.77;;;;;;;14.83;86.47;99811.25;10511629;28;20055;-71
2022/11/09 14:58:41;;;;;;;5.15;1.10;;;;;;;14.64;88.49;99811.50;10499838;28;20048;-71
2022/11/09 15:03:43;;;;;;;3.63;0.90;;;;;;;14.54;89.61;99813.44;10468024;28;20044;-71
2022/11/09 15:08:57;;;;;;;2.20;0.70;;;;;;;14.44;90.04;99830.47;10504022;28;20047;-72
2022/11/09 15:13:59;;;;;;;4.60;0.90;;;;;;;14.46;89.93;99841.84;10521072;28;20720;-73
2022/11/09 15:19:00;;;;;;;2.85;1.20;;;;;;;14.37;90.03;99831.25;10503132;28;20303;-72
2022/11/09 15:24:07;;;;;;;3.63;1.15;;;;;;;14.36;89.79;99835.75;10527068;28;20047;-74
2022/11/09 15:29:39;;;;;;;3.10;0.93;;;;;;;14.34;89.64;99827.06;10513059;28;20070;-72
2022/11/09 15:34:50;;;;;;;2.20;1.10;;;;;;;14.29;89.95;99829.34;10498976;28;20055;-71
2022/11/09 15:39:51;;;;;;;2.10;1.20;;;;;;;14.30;89.48;99831.03;10515647;28;20052;-73
2022/11/09 15:44:55;;;;;;;1.50;0.82;;;;;;;14.30;89.05;99842.56;10512491;28;20203;-72
2022/11/09 15:49:58;;;;;;;;;;;;;;;14.30;89.26;99834.53;10514658;28;20047;-72
2022/11/09 15:54:59;;;;;;;6.20;1.10;;;;;;;14.33;89.04;99844.13;10516100;28;19954;-73
2022/11/09 16:00:02;;;;;;;3.25;1.13;;;;;;;14.19;88.32;99837.50;10521071;28;20062;-74
2022/11/09 16:05:12;;;;;;;5.55;1.90;;;;;;;14.06;88.26;99837.06;10528924;28;20051;-74
2022/11/09 16:10:14;;;;;;;2.70;1.77;;;;;;;14.03;88.52;99843.56;10528208;28;20154;-72
2022/11/09 16:15:15;;;;;;;3.95;1.25;;;;;;;14.00;88.89;99843.88;10552820;28;20052;-73
2022/11/09 16:20:18;;;;;;;2.33;1.08;;;;;;;13.93;89.37;99843.69;10536658;28;20051;-72
2022/11/09 16:25:20;;;;;;;2.67;1.50;;;;;;;13.96;89.78;99854.06;10530538;27;20875;-71
2022/11/09 16:30:21;;;;;;;2.40;0.90;;;;;;;13.96;89.46;99871.94;10510162;28;20827;-73
2022/11/09 16:35:23;;;;;;;4.40;1.00;;;;;;;13.91;89.50;99887.63;10557746;28;23354;-72
2022/11/09 16:40:30;;;;;;;3.20;1.00;;;;;;;13.84;89.26;99887.41;10504111;28;20098;-72
2022/11/09 16:45:32;;;;;;;4.15;1.20;;;;;;;13.86;88.88;99896.13;10518411;27;20055;-72
2022/11/09 16:50:34;;;;;;;4.15;0.80;;;;;;;13.87;87.74;99903.16;10541562;28;20059;-73
2022/11/09 16:55:38;;;;;;;2.38;0.95;;;;;;;13.96;86.88;99912.94;10497569;28;20187;-70
2022/11/09 17:00:47;;;;;;;;;;;;;;;14.02;86.04;99926.69;10531386;27;20154;-71
2022/11/09 17:06:09;;;;;;;3.15;1.20;;;;;;;14.01;86.36;99931.22;10526005;28;19951;-72
2022/11/09 17:11:13;;;;;;;2.47;1.13;;;;;;;14.06;86.08;99944.94;10526983;28;20059;-71
2022/11/09 17:16:19;;;;;;;1.87;0.83;;;;;;;14.07;85.62;99952.00;10513322;27;20383;-71
2022/11/09 17:21:23;;;;;;;2.97;0.93;;;;;;;14.08;85.86;99964.41;10501023;28;20584;-73
2022/11/09 17:26:25;;;;;;;2.47;1.00;;;;;;;14.05;85.88;99964.69;10492886;28;21217;-74
2022/11/09 17:31:26;;;;;;;3.67;1.27;;;;;;;14.07;86.18;99977.94;10517828;28;20556;-71
2022/11/09 17:36:28;;;;;;;4.40;1.50;;;;;;;14.03;86.26;99988.09;10502719;28;20054;-71
2022/11/09 17:41:50;;;;;;;4.15;1.30;;;;;;;14.02;86.68;99997.13;10520522;28;20043;-73
2022/11/09 17:46:52;;;;;;;2.30;1.38;;;;;;;14.00;86.71;100000.94;10506011;28;20214;-74
2022/11/09 17:51:56;;;;;;;4.60;1.80;;;;;;;13.94;87.12;100005.06;10539948;28;20124;-70
2022/11/09 17:56:59;;;;;;;3.70;1.67;;;;;;;13.97;87.20;100005.56;10509575;28;20063;-70
2022/11/09 18:02:01;;;;;;;5.53;2.15;;;;;;;13.88;88.00;100011.84;10511938;28;20509;-75
2022/11/09 18:07:02;;;;;;;4.13;1.50;;;;;;;13.82;88.33;100006.28;10516658;28;20480;-73
2022/11/09 18:12:04;;;;;;;4.55;2.50;;;;;;;13.84;88.35;100020.31;10512082;28;20054;-71
2022/11/09 18:17:05;;;;;;;3.75;2.40;;;;;;;13.90;88.07;100022.41;10500213;28;20060;-72
2022/11/09 18:22:06;;;;;;;3.25;1.75;;;;;;;13.78;88.30;100017.28;10531402;27;20722;-73
2022/11/09 18:27:13;;;;;;;2.67;1.77;;;;;;;13.77;88.19;100030.78;10522165;28;20050;-71
2022/11/09 18:32:14;;;;;;;4.43;2.40;;;;;;;13.72;87.70;100028.56;10538400;28;20140;-72
2022/11/09 18:37:16;;;;;;;3.22;1.60;;;;;;;13.77;87.44;100038.81;10493692;27;20419;-73
2022/11/09 18:42:17;;;;;;;4.68;3.22;;;;;;;13.63;87.80;100040.16;10515170;28;20047;-72
2022/11/09 18:47:19;;;;;;;6.65;5.45;;;;;;;13.68;88.02;100048.56;10523618;28;20047;-72
2022/11/09 18:52:20;;;;;;;3.33;2.28;;;;;;;13.59;87.83;100050.31;10528022;28;20290;-72
2022/11/09 18:57:22;;;;;;;4.60;2.38;;;;;;;13.51;87.81;100062.72;10498020;28;20055;-70
2022/11/09 19:02:23;;;;;;;4.63;2.47;;;;;;;13.49;87.46;100073.56;10512897;28;20071;-72
2022/11/09 19:07:24;;;;;;;3.53;2.50;;;;;;;13.47;87.62;100072.06;10497849;28;20165;-72
2022/11/09 19:12:28;;;;;;;3.38;1.92;;;;;;;13.46;87.02;100081.06;10509310;28;20055;-73
2022/11/09 19:17:29;;;;;;;9.57;3.23;;;;;;;13.47;86.88;100074.72;10493326;28;20059;-72
2022/11/09 19:22:35;;;;;;;3.90;1.95;;;;;;;13.44;86.72;100087.38;10525209;28;20056;-73
2022/11/09 19:27:36;;;;;;;4.70;1.92;;;;;;;13.37;86.47;100085.44;10511885;27;21131;-72
2022/11/09 19:32:38;;;;;;;4.85;1.67;;;;;;;13.42;86.28;100100.06;10506525;28;20050;-72
2022/11/09 19:37:39;;;;;;;3.72;1.90;;;;;;;13.40;86.42;100115.38;10503426;28;20402;-73
2022/11/09 19:42:41;;;;;;;5.80;2.88;;;;;;;13.46;86.41;100118.47;10505957;28;20051;-72
2022/11/09 19:47:42;;;;;;;5.13;1.90;;;;;;;13.44;86.54;100122.13;10507918;28;20166;-72
2022/11/09 19:52:43;;;;;;;5.40;2.22;;;;;;;13.43;86.65;100132.97;10507723;28;20066;-71
2022/11/09 19:57:45;;;;;;;3.97;2.08;;;;;;;13.44;86.68;100138.19;10513639;28;20959;-71
2022/11/09 20:02:46;;;;;;;2.88;2.00;;;;;;;13.44;86.77;100132.84;10490967;28;20047;-70
2022/11/09 20:07:47;;;;;;;3.67;2.15;;;;;;;13.44;86.70;100148.03;10507603;28;20052;-74
2022/11/09 20:12:49;;;;;;;3.92;1.92;;;;;;;13.40;86.89;100157.34;10508479;28;21589;-72
2022/11/09 20:17:50;;;;;;;6.75;3.10;;;;;;;13.37;87.07;100171.81;10489681;28;20059;-73
2022/11/09 20:22:52;;;;;;;5.65;2.78;;;;;;;13.35;87.23;100186.34;10524871;28;20767;-71
2022/11/09 20:27:53;;;;;;;5.18;3.47;;;;;;;13.29;87.61;100192.22;10510284;28;20066;-72
2022/11/09 20:32:54;;;;;;;4.00;2.40;;;;;;;13.26;87.10;100188.84;10513230;28;21575;-75
2022/11/09 20:37:56;;;;;;;5.47;2.80;;;;;;;13.24;87.06;100195.31;10510009;28;20790;-74
2022/11/09 20:42:57;;;;;;;5.93;2.47;;;;;;;13.24;87.60;100216.69;10508202;28;20074;-73
2022/11/09 20:47:58;;;;;;;2.85;2.08;;;;;;;13.13;87.25;100211.50;10511111;28;20043;-73
2022/11/09 20:53:20;;;;;;;6.68;2.28;;;;;;;13.08;87.14;100218.09;10498188;28;20043;-71
2022/11/09 20:58:22;;;;;;;6.70;2.30;;;;;;;13.08;87.56;100223.44;10500214;28;20506;-73
2022/11/09 21:03:25;;;;;;;9.93;2.92;;;;;;;13.01;86.98;100214.31;10493628;27;20079;-74
2022/11/09 21:08:27;;;;;;;5.72;2.40;;;;;;;12.96;87.48;100224.56;10493409;28;20051;-72
2022/11/09 21:13:28;;;;;;;5.32;2.72;;;;;;;12.93;87.90;100238.22;10507593;28;20052;-75
2022/11/09 21:18:30;;;;;;;5.85;3.28;;;;;;;12.92;88.00;100247.19;10491363;28;20056;-72
2022/11/09 21:34:11;;;;;;;5.43;2.58;;;;;;;12.70;89.05;100270.50;10511820;28;20626;-71
2022/11/09 21:39:12;;;;;;;5.18;2.90;;;;;;;12.65;89.64;100277.25;10488987;28;20055;-78
2022/11/09 21:44:14;;;;;;;4.32;2.35;;;;;;;12.60;89.88;100284.81;10501782;28;20055;-73
2022/11/09 21:49:15;;;;;;;6.25;2.97;;;;;;;12.49;90.59;100293.75;10486894;28;20055;-72
2022/11/09 21:54:16;;;;;;;4.63;3.10;;;;;;;12.42;90.65;100300.66;10504040;28;20051;-71
2022/11/09 21:59:18;;;;;;;4.40;2.85;;;;;;;12.24;91.46;100295.91;10507355;28;20052;-71
2022/11/09 22:04:19;;;;;;;3.05;2.47;;;;;;;12.23;91.80;100310.22;10506633;28;20047;-72
2022/11/09 22:09:21;;;;;;;3.33;2.30;;;;;;;12.06;92.07;100303.69;10507607;28;20056;-74
2022/11/09 22:25:03;;;;;;;4.20;2.28;;;;;;;11.91;92.93;100347.66;10503614;28;20133;-73
2022/11/09 22:30:05;;;;;;;4.90;3.05;;;;;;;11.81;92.81;100339.56;10519775;27;20070;-75
2022/11/09 22:35:07;;;;;;;5.40;2.30;;;;;;;11.74;93.43;100351.72;10532037;28;20052;-74
2022/11/09 22:40:08;;;;;;;5.15;2.80;;;;;;;11.75;93.69;100367.59;10534379;28;20260;-74
2022/11/09 22:45:10;;;;;;;3.28;2.47;;;;;;;11.64;93.26;100375.66;10532044;27;20043;-74
2022/11/09 22:50:11;;;;;;;4.70;2.40;;;;;;;11.63;93.21;100390.81;10541600;27;20055;-76
2022/11/09 22:55:13;;;;;;;4.68;2.50;;;;;;;11.62;93.24;100378.47;10544855;28;20054;-74
2022/11/09 23:00:15;;;;;;;4.15;2.03;;;;;;;11.65;92.53;100388.88;10512760;28;20040;-73
2022/11/09 23:05:16;;;;;;;7.07;2.80;;;;;;;11.56;92.72;100399.44;10527091;27;20058;-75
2022/11/09 23:10:20;;;;;;;5.17;2.10;;;;;;;11.52;93.37;100403.34;10530605;28;20135;-76
2022/11/09 23:15:21;;;;;;;3.53;2.75;;;;;;;11.55;93.36;100403.09;10535235;28;20052;-75
2022/11/09 23:20:22;;;;;;;5.53;2.45;;;;;;;11.50;93.10;100406.13;10545785;28;20067;-75
2022/11/09 23:30:44;;;;;;;8.65;2.22;;;;;;;11.35;93.84;100413.56;10566684;28;20035;-77
2022/11/09 23:35:45;;;;;;;3.55;2.35;;;;;;;11.34;93.65;100400.38;10570085;28;20044;-77
2022/11/09 23:40:48;;;;;;;3.63;1.63;;;;;;;11.34;93.19;100411.03;10573824;28;20112;-75
2022/11/09 23:45:49;;;;;;;3.70;1.88;;;;;;;11.30;93.34;100426.41;10567972;28;20363;-76
2022/11/09 23:50:51;;;;;;;5.18;2.30;;;;;;;11.25;93.47;100428.59;10560374;28;20099;-75
2022/11/09 23:55:53;;;;;;;4.10;2.00;;;;;;;11.24;93.21;100427.72;10558227;28;20054;-75
